Share

Safford, AZ

9:06 PM MST on April 24, 2014 (GMT -0700)
Safford Regional (KSAD) Elev 3176 ft | 32.86 °N, 109.64 °W | Change Station
Active Advisory: Wind AdvisoryFire Weather Warning

Current weather conditions updated 15 minutes ago

Clear
Clear
75 °F
Feels Like 75 °F
N
15
Wind Variable Wind from NNW
Sunrise 5:38 AM
Sunset 6:55 PM
Moon Waning Crescent

Tomorrow is forecast to be nearly the same temperature as today.

Pressure 29.78 in
Visibility 10.0 miles
Clouds Clear
Dew Point 9 °F
Humidity 8%
Rainfall 0.00 in
Snow Depth Not available.
UV 0 out of 16
Pollen 7.20 out of 12
Air Quality Not available.
Flu Activity Local Activity
METAR KSAD 250351Z AUTO 33013KT 10SM CLR 24/M13 A2991 RMK AO2 SLP085 T02391128

More Conditions Fewer Conditions

Pressure 29.78 in
Visibility 10.0 miles
Clouds Clear
Dew Point 9 °F
Humidity 8%
Rainfall 0.00 in
Snow Depth Not available.
UV 0 out of 16
Pollen 7.20 out of 12
Air Quality Not available.
Flu Activity Local Activity
METAR KSAD 250351Z AUTO 33013KT 10SM CLR 24/M13 A2991 RMK AO2 SLP085 T02391128

More Conditions Fewer Conditions

10-Day Weather Forecast

Almanac

Astronomy

Apr. 24, 2014 Rise Set
Actual Time 5:38 AM MST 6:55 PM MST
Civil Twilight 5:13 AM MST 7:21 PM MST
Nautical Twilight 4:42 AM MST 7:52 PM MST
Astronomical Twilight 4:10 AM MST 8:24 PM MST
Moon 2:35 AM MST (4/24) 2:29 PM MST (4/24)
Length of Visible Light 14h 08m
Length of Day
13h 16m
Tomorrow will be 1m 50s longer.
Waning Crescent, 20% of the Moon is Illuminated
Apr 25
Waning Crescent
Apr 29
New
May 6
First Quarter
May 14
Full
May 21
Last Quarter

Today's Extremes

State Highs State Lows

Community

  • Critter
    Critter
  • Jone Runs Falls
    Jone Runs Falls
  • Easter in Shenandoah National Park
    Easter in Shenandoah National Park
  • Sunset at Apalachicola Bay, Florida
    Sunset at Apalachicola Bay, Florida
  • Clouds mov'n in
    Clouds mov'n in

WunderPhotos

Upload Photos

1,704,841 photos uploaded!

WunderBlogs® & News

Nearby

Snow Depth

Station Depth Elevation
Hannagan Meadows 0 in 9020 ft
Beaver Head 0 in 7990 ft
Workman Creek 2 in 6900 ft
Heber 0 in 7640 ft
Baker Butte 0 in 7300 ft

Coastal Water Temperatures

Place Temperature
No Stations Reporting

Earthquake Activity

City Distance Mag. Time & Date
No recent earthquake activity has been reported nearby.
Minimum magnitude displayed is 2.5.

Nearby Weather Stations

Station Location Temp. Windchill Dew Point Humidity Wind Precip. Elev Updated Type
RAWS BLACK HILLS AZ, Fort Thomas, AZ 75 °F - 10 °F 8% NNW  at  9 mph 0.00 in / hr 3352 ft 7:53 PM MST MADIS
RAWS COLUMBINE AZ, Thatcher, AZ 44 °F 41 °F 11 °F 26% South  at  5 mph 0.00 in / hr 9521 ft 8:02 PM MST MADIS
MGIO, Safford, AZ 37.5 °F 38 °F 9 °F 31% SSE  at  2.0 mph 0.00 in / hr 10420 ft 9:00 PM MST Normal

Show More Stations Show Fewer Stations

What do you think?

We're not finished. Please let us know what you like, what you don't like, and what you are still missing.